sensor_id;sensor_type;location;lat;lon;timestamp;pressure;altitude;pressure_sealevel;temperature
69597;BMP180;70000;51.176;-115.568;2024-01-16T00:00:12;86843.80;;;-16.60
69597;BMP180;70000;51.176;-115.568;2024-01-16T00:02:40;86844.80;;;-16.60
69597;BMP180;70000;51.176;-115.568;2024-01-16T00:05:09;86855.40;;;-16.60
69597;BMP180;70000;51.176;-115.568;2024-01-16T00:07:39;86851.20;;;-16.60
69597;BMP180;70000;51.176;-115.568;2024-01-16T00:10:10;86848.40;;;-16.60
69597;BMP180;70000;51.176;-115.568;2024-01-16T00:12:38;86846.80;;;-16.60
69597;BMP180;70000;51.176;-115.568;2024-01-16T00:15:08;86842.80;;;-16.60
69597;BMP180;70000;51.176;-115.568;2024-01-16T00:17:37;86839.40;;;-16.60
69597;BMP180;70000;51.176;-115.568;2024-01-16T00:20:06;86844.80;;;-16.56
69597;BMP180;70000;51.176;-115.568;2024-01-16T00:22:34;86845.80;;;-16.56
69597;BMP180;70000;51.176;-115.568;2024-01-16T00:25:03;86844.20;;;-16.60
69597;BMP180;70000;51.176;-115.568;2024-01-16T00:27:32;86838.80;;;-16.60
69597;BMP180;70000;51.176;-115.568;2024-01-16T00:30:00;86845.20;;;-16.50
69597;BMP180;70000;51.176;-115.568;2024-01-16T00:32:29;86853.40;;;-16.50
69597;BMP180;70000;51.176;-115.568;2024-01-16T00:34:58;86853.00;;;-16.50
69597;BMP180;70000;51.176;-115.568;2024-01-16T00:37:26;86846.00;;;-16.52
69597;BMP180;70000;51.176;-115.568;2024-01-16T00:39:55;86846.40;;;-16.54
69597;BMP180;70000;51.176;-115.568;2024-01-16T00:42:23;86846.80;;;-16.58
69597;BMP180;70000;51.176;-115.568;2024-01-16T00:44:51;86846.80;;;-16.58
69597;BMP180;70000;51.176;-115.568;2024-01-16T00:47:19;86847.60;;;-16.60
69597;BMP180;70000;51.176;-115.568;2024-01-16T00:49:48;86842.80;;;-16.56
69597;BMP180;70000;51.176;-115.568;2024-01-16T00:52:16;86839.80;;;-16.60
69597;BMP180;70000;51.176;-115.568;2024-01-16T00:54:45;86836.20;;;-16.60
69597;BMP180;70000;51.176;-115.568;2024-01-16T00:57:13;86835.60;;;-16.60
69597;BMP180;70000;51.176;-115.568;2024-01-16T00:59:44;86835.20;;;-16.60
69597;BMP180;70000;51.176;-115.568;2024-01-16T01:02:12;86837.80;;;-16.60
69597;BMP180;70000;51.176;-115.568;2024-01-16T01:04:41;86844.20;;;-16.70
69597;BMP180;70000;51.176;-115.568;2024-01-16T01:07:14;86843.20;;;-16.70
69597;BMP180;70000;51.176;-115.568;2024-01-16T01:09:42;86844.00;;;-16.70
69597;BMP180;70000;51.176;-115.568;2024-01-16T01:12:11;86848.40;;;-16.70
69597;BMP180;70000;51.176;-115.568;2024-01-16T01:14:39;86847.40;;;-16.78
69597;BMP180;70000;51.176;-115.568;2024-01-16T01:17:07;86852.60;;;-16.80
69597;BMP180;70000;51.176;-115.568;2024-01-16T01:19:35;86847.40;;;-16.90
69597;BMP180;70000;51.176;-115.568;2024-01-16T01:22:04;86843.40;;;-16.94
69597;BMP180;70000;51.176;-115.568;2024-01-16T01:24:32;86868.80;;;-17.00
69597;BMP180;70000;51.176;-115.568;2024-01-16T01:27:00;86859.60;;;-17.08
69597;BMP180;70000;51.176;-115.568;2024-01-16T01:29:29;86853.00;;;-17.10
69597;BMP180;70000;51.176;-115.568;2024-01-16T01:31:57;86855.60;;;-17.10
69597;BMP180;70000;51.176;-115.568;2024-01-16T01:34:29;86843.60;;;-17.20
69597;BMP180;70000;51.176;-115.568;2024-01-16T01:37:00;86847.80;;;-17.20
69597;BMP180;70000;51.176;-115.568;2024-01-16T01:39:29;86846.40;;;-17.20
69597;BMP180;70000;51.176;-115.568;2024-01-16T01:41:58;86872.20;;;-17.20
69597;BMP180;70000;51.176;-115.568;2024-01-16T01:44:26;86862.60;;;-17.28
69597;BMP180;70000;51.176;-115.568;2024-01-16T01:46:56;86861.80;;;-17.30
69597;BMP180;70000;51.176;-115.568;2024-01-16T01:49:25;86859.40;;;-17.30
69597;BMP180;70000;51.176;-115.568;2024-01-16T01:51:55;86853.00;;;-17.30
69597;BMP180;70000;51.176;-115.568;2024-01-16T01:54:26;86859.00;;;-17.30
69597;BMP180;70000;51.176;-115.568;2024-01-16T01:56:55;86857.80;;;-17.30
69597;BMP180;70000;51.176;-115.568;2024-01-16T01:59:25;86853.40;;;-17.30
69597;BMP180;70000;51.176;-115.568;2024-01-16T02:04:47;86847.80;;;-17.30
69597;BMP180;70000;51.176;-115.568;2024-01-16T02:07:16;86847.20;;;-17.40
69597;BMP180;70000;51.176;-115.568;2024-01-16T02:09:45;86842.20;;;-17.40
69597;BMP180;70000;51.176;-115.568;2024-01-16T02:12:13;86854.20;;;-17.40
69597;BMP180;70000;51.176;-115.568;2024-01-16T02:14:41;86850.60;;;-17.40
69597;BMP180;70000;51.176;-115.568;2024-01-16T02:17:10;86847.00;;;-17.40
69597;BMP180;70000;51.176;-115.568;2024-01-16T02:19:38;86852.60;;;-17.40
69597;BMP180;70000;51.176;-115.568;2024-01-16T02:22:13;86842.00;;;-17.40
69597;BMP180;70000;51.176;-115.568;2024-01-16T02:24:44;86848.00;;;-17.40
69597;BMP180;70000;51.176;-115.568;2024-01-16T02:27:43;86852.60;;;-17.30
69597;BMP180;70000;51.176;-115.568;2024-01-16T02:30:12;86850.00;;;-17.30
69597;BMP180;70000;51.176;-115.568;2024-01-16T02:32:41;86860.60;;;-17.30
69597;BMP180;70000;51.176;-115.568;2024-01-16T02:35:11;86851.00;;;-17.30
69597;BMP180;70000;51.176;-115.568;2024-01-16T02:37:40;86841.40;;;-17.38
69597;BMP180;70000;51.176;-115.568;2024-01-16T02:40:18;86841.60;;;-17.40
69597;BMP180;70000;51.176;-115.568;2024-01-16T02:43:07;86831.80;;;-17.40
69597;BMP180;70000;51.176;-115.568;2024-01-16T02:45:36;86834.80;;;-17.38
69597;BMP180;70000;51.176;-115.568;2024-01-16T02:48:09;86832.60;;;-17.32
69597;BMP180;70000;51.176;-115.568;2024-01-16T02:54:26;86827.20;;;-17.30
69597;BMP180;70000;51.176;-115.568;2024-01-16T02:56:55;86826.40;;;-17.30
69597;BMP180;70000;51.176;-115.568;2024-01-16T03:02:54;86826.60;;;-17.22
69597;BMP180;70000;51.176;-115.568;2024-01-16T03:05:23;86823.80;;;-17.28
69597;BMP180;70000;51.176;-115.568;2024-01-16T03:07:52;86820.00;;;-17.30
69597;BMP180;70000;51.176;-115.568;2024-01-16T03:10:20;86820.80;;;-17.30
69597;BMP180;70000;51.176;-115.568;2024-01-16T03:12:53;86830.40;;;-17.30
69597;BMP180;70000;51.176;-115.568;2024-01-16T03:15:21;86818.60;;;-17.40
69597;BMP180;70000;51.176;-115.568;2024-01-16T03:17:50;86815.00;;;-17.38
69597;BMP180;70000;51.176;-115.568;2024-01-16T03:20:21;86812.60;;;-17.32
69597;BMP180;70000;51.176;-115.568;2024-01-16T03:22:51;86811.60;;;-17.30
69597;BMP180;70000;51.176;-115.568;2024-01-16T03:27:44;86818.00;;;-17.30
69597;BMP180;70000;51.176;-115.568;2024-01-16T03:30:12;86806.80;;;-17.30
69597;BMP180;70000;51.176;-115.568;2024-01-16T03:32:44;86809.20;;;-17.30
69597;BMP180;70000;51.176;-115.568;2024-01-16T03:35:13;86815.20;;;-17.24
69597;BMP180;70000;51.176;-115.568;2024-01-16T03:37:41;86811.80;;;-17.20
69597;BMP180;70000;51.176;-115.568;2024-01-16T03:42:42;86805.80;;;-17.20
69597;BMP180;70000;51.176;-115.568;2024-01-16T03:45:10;86815.80;;;-17.16
69597;BMP180;70000;51.176;-115.568;2024-01-16T03:47:43;86811.60;;;-17.10
69597;BMP180;70000;51.176;-115.568;2024-01-16T03:50:17;86807.60;;;-17.20
69597;BMP180;70000;51.176;-115.568;2024-01-16T03:52:45;86801.20;;;-17.28
69597;BMP180;70000;51.176;-115.568;2024-01-16T03:55:14;86798.40;;;-17.30
69597;BMP180;70000;51.176;-115.568;2024-01-16T03:57:43;86812.20;;;-17.30
69597;BMP180;70000;51.176;-115.568;2024-01-16T04:00:15;86807.20;;;-17.40
69597;BMP180;70000;51.176;-115.568;2024-01-16T04:02:49;86803.40;;;-17.42
69597;BMP180;70000;51.176;-115.568;2024-01-16T04:05:17;86801.00;;;-17.50
69597;BMP180;70000;51.176;-115.568;2024-01-16T04:07:46;86794.20;;;-17.60
69597;BMP180;70000;51.176;-115.568;2024-01-16T04:10:14;86802.00;;;-17.60
69597;BMP180;70000;51.176;-115.568;2024-01-16T04:12:43;86812.20;;;-17.60
69597;BMP180;70000;51.176;-115.568;2024-01-16T04:15:11;86802.20;;;-17.60
69597;BMP180;70000;51.176;-115.568;2024-01-16T04:17:39;86794.40;;;-17.60
69597;BMP180;70000;51.176;-115.568;2024-01-16T04:20:14;86789.20;;;-17.60
69597;BMP180;70000;51.176;-115.568;2024-01-16T04:22:42;86781.80;;;-17.58
69597;BMP180;70000;51.176;-115.568;2024-01-16T04:25:11;86792.40;;;-17.60
69597;BMP180;70000;51.176;-115.568;2024-01-16T04:27:45;86789.00;;;-17.60
69597;BMP180;70000;51.176;-115.568;2024-01-16T04:30:17;86774.00;;;-17.70
69597;BMP180;70000;51.176;-115.568;2024-01-16T04:37:17;86776.40;;;-17.76
69597;BMP180;70000;51.176;-115.568;2024-01-16T04:39:45;86775.60;;;-17.74
69597;BMP180;70000;51.176;-115.568;2024-01-16T04:42:15;86784.00;;;-17.74
69597;BMP180;70000;51.176;-115.568;2024-01-16T04:44:45;86779.20;;;-17.70
69597;BMP180;70000;51.176;-115.568;2024-01-16T04:47:13;86771.20;;;-17.76
69597;BMP180;70000;51.176;-115.568;2024-01-16T04:49:45;86779.60;;;-17.80
69597;BMP180;70000;51.176;-115.568;2024-01-16T04:52:14;86771.20;;;-17.80
69597;BMP180;70000;51.176;-115.568;2024-01-16T04:54:42;86765.40;;;-17.80
69597;BMP180;70000;51.176;-115.568;2024-01-16T04:57:16;86772.80;;;-17.80
69597;BMP180;70000;51.176;-115.568;2024-01-16T04:59:45;86764.20;;;-17.82
69597;BMP180;70000;51.176;-115.568;2024-01-16T05:02:17;86769.80;;;-17.90
69597;BMP180;70000;51.176;-115.568;2024-01-16T05:04:53;86766.60;;;-17.90
69597;BMP180;70000;51.176;-115.568;2024-01-16T05:07:25;86765.80;;;-17.92
69597;BMP180;70000;51.176;-115.568;2024-01-16T05:09:54;86769.00;;;-17.90
69597;BMP180;70000;51.176;-115.568;2024-01-16T05:12:30;86754.40;;;-17.94
69597;BMP180;70000;51.176;-115.568;2024-01-16T05:14:59;86751.00;;;-17.90
69597;BMP180;70000;51.176;-115.568;2024-01-16T05:17:27;86750.80;;;-17.90
69597;BMP180;70000;51.176;-115.568;2024-01-16T05:19:59;86752.80;;;-17.90
69597;BMP180;70000;51.176;-115.568;2024-01-16T05:25:45;86767.20;;;-18.00
69597;BMP180;70000;51.176;-115.568;2024-01-16T05:28:17;86763.80;;;-18.00
69597;BMP180;70000;51.176;-115.568;2024-01-16T05:30:46;86764.60;;;-18.02
69597;BMP180;70000;51.176;-115.568;2024-01-16T05:36:42;86759.20;;;-18.10
69597;BMP180;70000;51.176;-115.568;2024-01-16T05:39:11;86755.20;;;-18.10
69597;BMP180;70000;51.176;-115.568;2024-01-16T05:44:05;86770.00;;;-18.18
69597;BMP180;70000;51.176;-115.568;2024-01-16T05:46:35;86775.00;;;-18.20
69597;BMP180;70000;51.176;-115.568;2024-01-16T05:49:04;86766.20;;;-18.26
69597;BMP180;70000;51.176;-115.568;2024-01-16T05:51:33;86764.60;;;-18.30
69597;BMP180;70000;51.176;-115.568;2024-01-16T05:54:02;86764.00;;;-18.30
69597;BMP180;70000;51.176;-115.568;2024-01-16T05:59:02;86750.80;;;-18.20
69597;BMP180;70000;51.176;-115.568;2024-01-16T06:01:31;86771.40;;;-18.20
69597;BMP180;70000;51.176;-115.568;2024-01-16T06:04:00;86779.40;;;-18.20
69597;BMP180;70000;51.176;-115.568;2024-01-16T06:06:35;86770.20;;;-18.20
69597;BMP180;70000;51.176;-115.568;2024-01-16T06:09:04;86778.60;;;-18.22
69597;BMP180;70000;51.176;-115.568;2024-01-16T06:11:34;86773.20;;;-18.30
69597;BMP180;70000;51.176;-115.568;2024-01-16T06:14:04;86784.40;;;-18.36
69597;BMP180;70000;51.176;-115.568;2024-01-16T06:16:34;86780.80;;;-18.40
69597;BMP180;70000;51.176;-115.568;2024-01-16T06:19:03;86767.20;;;-18.40
69597;BMP180;70000;51.176;-115.568;2024-01-16T06:21:33;86779.80;;;-18.40
69597;BMP180;70000;51.176;-115.568;2024-01-16T06:24:18;86767.00;;;-18.40
69597;BMP180;70000;51.176;-115.568;2024-01-16T06:26:47;86769.40;;;-18.40
69597;BMP180;70000;51.176;-115.568;2024-01-16T06:29:16;86761.40;;;-18.40
69597;BMP180;70000;51.176;-115.568;2024-01-16T06:31:58;86771.40;;;-18.34
69597;BMP180;70000;51.176;-115.568;2024-01-16T06:34:28;86760.80;;;-18.30
69597;BMP180;70000;51.176;-115.568;2024-01-16T06:36:57;86745.00;;;-18.30
69597;BMP180;70000;51.176;-115.568;2024-01-16T06:39:26;86744.00;;;-18.30
69597;BMP180;70000;51.176;-115.568;2024-01-16T06:41:55;86737.40;;;-18.30
69597;BMP180;70000;51.176;-115.568;2024-01-16T06:44:24;86740.20;;;-18.30
69597;BMP180;70000;51.176;-115.568;2024-01-16T06:46:53;86743.60;;;-18.30
69597;BMP180;70000;51.176;-115.568;2024-01-16T06:49:22;86736.00;;;-18.38
69597;BMP180;70000;51.176;-115.568;2024-01-16T06:51:51;86738.00;;;-18.40
69597;BMP180;70000;51.176;-115.568;2024-01-16T06:54:20;86737.60;;;-18.44
69597;BMP180;70000;51.176;-115.568;2024-01-16T06:56:52;86744.80;;;-18.50
69597;BMP180;70000;51.176;-115.568;2024-01-16T06:59:21;86744.00;;;-18.50
69597;BMP180;70000;51.176;-115.568;2024-01-16T07:01:50;86745.40;;;-18.56
69597;BMP180;70000;51.176;-115.568;2024-01-16T07:04:20;86741.20;;;-18.60
69597;BMP180;70000;51.176;-115.568;2024-01-16T07:06:49;86740.20;;;-18.52
69597;BMP180;70000;51.176;-115.568;2024-01-16T07:09:18;86745.80;;;-18.50
69597;BMP180;70000;51.176;-115.568;2024-01-16T07:11:49;86748.60;;;-18.50
69597;BMP180;70000;51.176;-115.568;2024-01-16T07:14:18;86739.40;;;-18.50
69597;BMP180;70000;51.176;-115.568;2024-01-16T07:16:48;86737.20;;;-18.50
69597;BMP180;70000;51.176;-115.568;2024-01-16T07:19:18;86727.20;;;-18.50
69597;BMP180;70000;51.176;-115.568;2024-01-16T07:21:47;86727.80;;;-18.40
69597;BMP180;70000;51.176;-115.568;2024-01-16T07:24:16;86727.20;;;-18.40
69597;BMP180;70000;51.176;-115.568;2024-01-16T07:26:44;86732.20;;;-18.40
69597;BMP180;70000;51.176;-115.568;2024-01-16T07:29:13;86735.00;;;-18.40
69597;BMP180;70000;51.176;-115.568;2024-01-16T07:31:43;86740.80;;;-18.40
69597;BMP180;70000;51.176;-115.568;2024-01-16T07:34:12;86732.00;;;-18.40
69597;BMP180;70000;51.176;-115.568;2024-01-16T07:36:41;86726.40;;;-18.38
69597;BMP180;70000;51.176;-115.568;2024-01-16T07:39:10;86731.80;;;-18.34
69597;BMP180;70000;51.176;-115.568;2024-01-16T07:41:38;86715.40;;;-18.30
69597;BMP180;70000;51.176;-115.568;2024-01-16T07:44:10;86710.80;;;-18.30
69597;BMP180;70000;51.176;-115.568;2024-01-16T07:46:39;86718.20;;;-18.30
69597;BMP180;70000;51.176;-115.568;2024-01-16T07:49:45;86722.00;;;-18.22
69597;BMP180;70000;51.176;-115.568;2024-01-16T07:52:13;86722.40;;;-18.20
69597;BMP180;70000;51.176;-115.568;2024-01-16T07:54:41;86709.40;;;-18.20
69597;BMP180;70000;51.176;-115.568;2024-01-16T07:57:10;86705.20;;;-18.16
69597;BMP180;70000;51.176;-115.568;2024-01-16T07:59:39;86706.40;;;-18.10
69597;BMP180;70000;51.176;-115.568;2024-01-16T08:02:08;86713.20;;;-18.10
69597;BMP180;70000;51.176;-115.568;2024-01-16T08:04:37;86700.40;;;-18.10
69597;BMP180;70000;51.176;-115.568;2024-01-16T08:07:05;86691.80;;;-18.10
69597;BMP180;70000;51.176;-115.568;2024-01-16T08:09:33;86700.60;;;-18.10
69597;BMP180;70000;51.176;-115.568;2024-01-16T08:12:17;86685.60;;;-18.10
69597;BMP180;70000;51.176;-115.568;2024-01-16T08:14:46;86696.00;;;-18.00
69597;BMP180;70000;51.176;-115.568;2024-01-16T08:17:14;86693.80;;;-18.00
69597;BMP180;70000;51.176;-115.568;2024-01-16T08:19:43;86705.00;;;-18.00
69597;BMP180;70000;51.176;-115.568;2024-01-16T08:22:11;86707.80;;;-18.00
69597;BMP180;70000;51.176;-115.568;2024-01-16T08:28:05;86697.20;;;-18.10
69597;BMP180;70000;51.176;-115.568;2024-01-16T08:30:34;86700.60;;;-18.10
69597;BMP180;70000;51.176;-115.568;2024-01-16T08:33:03;86691.80;;;-18.10
69597;BMP180;70000;51.176;-115.568;2024-01-16T08:35:31;86692.00;;;-18.10
69597;BMP180;70000;51.176;-115.568;2024-01-16T08:38:00;86693.40;;;-18.10
69597;BMP180;70000;51.176;-115.568;2024-01-16T08:40:32;86688.20;;;-18.10
69597;BMP180;70000;51.176;-115.568;2024-01-16T08:46:37;86683.20;;;-18.20
69597;BMP180;70000;51.176;-115.568;2024-01-16T08:49:06;86685.40;;;-18.20
69597;BMP180;70000;51.176;-115.568;2024-01-16T08:51:37;86678.80;;;-18.20
69597;BMP180;70000;51.176;-115.568;2024-01-16T08:54:07;86667.40;;;-18.20
69597;BMP180;70000;51.176;-115.568;2024-01-16T08:56:36;86664.60;;;-18.16
69597;BMP180;70000;51.176;-115.568;2024-01-16T08:59:06;86670.40;;;-18.10
69597;BMP180;70000;51.176;-115.568;2024-01-16T09:01:35;86675.60;;;-18.10
69597;BMP180;70000;51.176;-115.568;2024-01-16T09:04:04;86653.60;;;-18.10
69597;BMP180;70000;51.176;-115.568;2024-01-16T09:06:35;86664.00;;;-18.00
69597;BMP180;70000;51.176;-115.568;2024-01-16T09:09:07;86655.40;;;-18.00
69597;BMP180;70000;51.176;-115.568;2024-01-16T09:11:40;86654.40;;;-18.00
69597;BMP180;70000;51.176;-115.568;2024-01-16T09:14:12;86653.80;;;-18.10
69597;BMP180;70000;51.176;-115.568;2024-01-16T09:16:41;86645.20;;;-18.10
69597;BMP180;70000;51.176;-115.568;2024-01-16T09:19:10;86662.80;;;-18.10
69597;BMP180;70000;51.176;-115.568;2024-01-16T09:21:40;86658.80;;;-18.20
69597;BMP180;70000;51.176;-115.568;2024-01-16T09:24:09;86650.80;;;-18.28
69597;BMP180;70000;51.176;-115.568;2024-01-16T09:26:39;86654.00;;;-18.30
69597;BMP180;70000;51.176;-115.568;2024-01-16T09:29:10;86666.20;;;-18.32
69597;BMP180;70000;51.176;-115.568;2024-01-16T09:31:39;86657.00;;;-18.36
69597;BMP180;70000;51.176;-115.568;2024-01-16T09:34:11;86651.80;;;-18.32
69597;BMP180;70000;51.176;-115.568;2024-01-16T09:36:41;86647.80;;;-18.30
69597;BMP180;70000;51.176;-115.568;2024-01-16T09:39:12;86654.20;;;-18.30
69597;BMP180;70000;51.176;-115.568;2024-01-16T09:41:46;86662.20;;;-18.30
69597;BMP180;70000;51.176;-115.568;2024-01-16T09:44:15;86657.00;;;-18.32
69597;BMP180;70000;51.176;-115.568;2024-01-16T09:46:50;86656.40;;;-18.40
69597;BMP180;70000;51.176;-115.568;2024-01-16T09:49:19;86656.40;;;-18.48
69597;BMP180;70000;51.176;-115.568;2024-01-16T09:54:55;86659.20;;;-18.50
69597;BMP180;70000;51.176;-115.568;2024-01-16T09:57:28;86661.80;;;-18.50
69597;BMP180;70000;51.176;-115.568;2024-01-16T09:59:58;86663.80;;;-18.56
69597;BMP180;70000;51.176;-115.568;2024-01-16T10:02:28;86651.00;;;-18.50
69597;BMP180;70000;51.176;-115.568;2024-01-16T10:05:00;86649.80;;;-18.50
69597;BMP180;70000;51.176;-115.568;2024-01-16T10:07:31;86651.80;;;-18.42
69597;BMP180;70000;51.176;-115.568;2024-01-16T10:10:03;86653.80;;;-18.40
69597;BMP180;70000;51.176;-115.568;2024-01-16T10:12:33;86640.20;;;-18.30
69597;BMP180;70000;51.176;-115.568;2024-01-16T10:15:05;86639.20;;;-18.30
69597;BMP180;70000;51.176;-115.568;2024-01-16T10:17:43;86633.60;;;-18.20
69597;BMP180;70000;51.176;-115.568;2024-01-16T10:20:12;86630.80;;;-18.20
69597;BMP180;70000;51.176;-115.568;2024-01-16T10:22:55;86639.60;;;-18.20
69597;BMP180;70000;51.176;-115.568;2024-01-16T10:25:26;86625.40;;;-18.20
69597;BMP180;70000;51.176;-115.568;2024-01-16T10:28:05;86619.60;;;-18.20
69597;BMP180;70000;51.176;-115.568;2024-01-16T10:30:36;86607.00;;;-18.18
69597;BMP180;70000;51.176;-115.568;2024-01-16T10:33:15;86606.20;;;-18.14
69597;BMP180;70000;51.176;-115.568;2024-01-16T10:35:47;86606.00;;;-18.20
69597;BMP180;70000;51.176;-115.568;2024-01-16T10:38:22;86599.60;;;-18.20
69597;BMP180;70000;51.176;-115.568;2024-01-16T10:43:41;86595.60;;;-18.26
69597;BMP180;70000;51.176;-115.568;2024-01-16T10:46:17;86599.40;;;-18.20
69597;BMP180;70000;51.176;-115.568;2024-01-16T10:49:04;86592.60;;;-18.20
69597;BMP180;70000;51.176;-115.568;2024-01-16T10:54:41;86572.60;;;-18.30
69597;BMP180;70000;51.176;-115.568;2024-01-16T10:57:31;86573.60;;;-18.30
69597;BMP180;70000;51.176;-115.568;2024-01-16T11:00:04;86575.20;;;-18.30
69597;BMP180;70000;51.176;-115.568;2024-01-16T11:02:58;86572.20;;;-18.34
69597;BMP180;70000;51.176;-115.568;2024-01-16T11:05:32;86583.00;;;-18.40
69597;BMP180;70000;51.176;-115.568;2024-01-16T11:08:01;86574.20;;;-18.40
69597;BMP180;70000;51.176;-115.568;2024-01-16T11:10:35;86570.60;;;-18.40
69597;BMP180;70000;51.176;-115.568;2024-01-16T11:13:06;86575.40;;;-18.40
69597;BMP180;70000;51.176;-115.568;2024-01-16T11:15:38;86570.60;;;-18.40
69597;BMP180;70000;51.176;-115.568;2024-01-16T11:18:10;86568.60;;;-18.50
69597;BMP180;70000;51.176;-115.568;2024-01-16T11:20:42;86564.00;;;-18.50
69597;BMP180;70000;51.176;-115.568;2024-01-16T11:23:36;86549.60;;;-18.48
69597;BMP180;70000;51.176;-115.568;2024-01-16T11:26:32;86556.00;;;-18.40
69597;BMP180;70000;51.176;-115.568;2024-01-16T11:31:58;86539.20;;;-18.32
69597;BMP180;70000;51.176;-115.568;2024-01-16T11:34:53;86535.00;;;-18.30
69597;BMP180;70000;51.176;-115.568;2024-01-16T11:37:31;86535.60;;;-18.30
69597;BMP180;70000;51.176;-115.568;2024-01-16T11:40:20;86531.60;;;-18.26
69597;BMP180;70000;51.176;-115.568;2024-01-16T11:42:51;86530.80;;;-18.20
69597;BMP180;70000;51.176;-115.568;2024-01-16T11:48:13;86525.00;;;-18.30
69597;BMP180;70000;51.176;-115.568;2024-01-16T11:50:44;86507.00;;;-18.30
69597;BMP180;70000;51.176;-115.568;2024-01-16T11:53:33;86510.40;;;-18.40
69597;BMP180;70000;51.176;-115.568;2024-01-16T11:59:55;86498.40;;;-18.50
69597;BMP180;70000;51.176;-115.568;2024-01-16T12:05:06;86501.20;;;-18.62
69597;BMP180;70000;51.176;-115.568;2024-01-16T12:07:52;86498.80;;;-18.62
69597;BMP180;70000;51.176;-115.568;2024-01-16T12:10:24;86492.20;;;-18.60
69597;BMP180;70000;51.176;-115.568;2024-01-16T12:13:00;86490.40;;;-18.60
69597;BMP180;70000;51.176;-115.568;2024-01-16T12:15:32;86484.40;;;-18.56
69597;BMP180;70000;51.176;-115.568;2024-01-16T12:18:02;86470.80;;;-18.50
69597;BMP180;70000;51.176;-115.568;2024-01-16T12:20:46;86477.40;;;-18.50
69597;BMP180;70000;51.176;-115.568;2024-01-16T12:23:15;86480.60;;;-18.52
69597;BMP180;70000;51.176;-115.568;2024-01-16T12:25:51;86478.80;;;-18.60
69597;BMP180;70000;51.176;-115.568;2024-01-16T12:28:30;86477.80;;;-18.60
69597;BMP180;70000;51.176;-115.568;2024-01-16T12:31:00;86467.40;;;-18.70
69597;BMP180;70000;51.176;-115.568;2024-01-16T12:33:31;86477.80;;;-18.70
69597;BMP180;70000;51.176;-115.568;2024-01-16T12:36:04;86476.60;;;-18.78
69597;BMP180;70000;51.176;-115.568;2024-01-16T12:38:33;86466.40;;;-18.80
69597;BMP180;70000;51.176;-115.568;2024-01-16T12:41:09;86467.20;;;-18.70
69597;BMP180;70000;51.176;-115.568;2024-01-16T12:43:39;86458.80;;;-18.70
69597;BMP180;70000;51.176;-115.568;2024-01-16T12:46:12;86469.80;;;-18.68
69597;BMP180;70000;51.176;-115.568;2024-01-16T12:48:41;86472.60;;;-18.60
69597;BMP180;70000;51.176;-115.568;2024-01-16T12:51:23;86470.80;;;-18.50
69597;BMP180;70000;51.176;-115.568;2024-01-16T12:53:52;86474.80;;;-18.50
69597;BMP180;70000;51.176;-115.568;2024-01-16T12:56:21;86470.80;;;-18.50
69597;BMP180;70000;51.176;-115.568;2024-01-16T12:59:12;86460.60;;;-18.50
69597;BMP180;70000;51.176;-115.568;2024-01-16T13:01:45;86464.00;;;-18.50
69597;BMP180;70000;51.176;-115.568;2024-01-16T13:04:16;86453.80;;;-18.50
69597;BMP180;70000;51.176;-115.568;2024-01-16T13:06:50;86444.00;;;-18.60
69597;BMP180;70000;51.176;-115.568;2024-01-16T13:12:43;86453.40;;;-18.60
69597;BMP180;70000;51.176;-115.568;2024-01-16T13:15:12;86447.60;;;-18.60
69597;BMP180;70000;51.176;-115.568;2024-01-16T13:17:45;86439.80;;;-18.50
69597;BMP180;70000;51.176;-115.568;2024-01-16T13:20:13;86441.20;;;-18.50
69597;BMP180;70000;51.176;-115.568;2024-01-16T13:22:51;86439.80;;;-18.44
69597;BMP180;70000;51.176;-115.568;2024-01-16T13:25:22;86428.80;;;-18.42
69597;BMP180;70000;51.176;-115.568;2024-01-16T13:27:50;86410.20;;;-18.40
69597;BMP180;70000;51.176;-115.568;2024-01-16T13:30:19;86404.20;;;-18.40
69597;BMP180;70000;51.176;-115.568;2024-01-16T13:32:48;86406.80;;;-18.40
69597;BMP180;70000;51.176;-115.568;2024-01-16T13:35:20;86394.80;;;-18.32
69597;BMP180;70000;51.176;-115.568;2024-01-16T13:37:48;86411.20;;;-18.30
69597;BMP180;70000;51.176;-115.568;2024-01-16T13:40:18;86408.20;;;-18.30
69597;BMP180;70000;51.176;-115.568;2024-01-16T13:42:49;86404.60;;;-18.24
69597;BMP180;70000;51.176;-115.568;2024-01-16T13:45:18;86396.80;;;-18.20
69597;BMP180;70000;51.176;-115.568;2024-01-16T13:47:47;86411.60;;;-18.20
69597;BMP180;70000;51.176;-115.568;2024-01-16T13:50:16;86390.00;;;-18.20
69597;BMP180;70000;51.176;-115.568;2024-01-16T13:52:45;86383.60;;;-18.20
69597;BMP180;70000;51.176;-115.568;2024-01-16T13:55:15;86378.00;;;-18.20
69597;BMP180;70000;51.176;-115.568;2024-01-16T13:57:46;86380.40;;;-18.20
69597;BMP180;70000;51.176;-115.568;2024-01-16T14:00:16;86371.00;;;-18.16
69597;BMP180;70000;51.176;-115.568;2024-01-16T14:02:47;86366.40;;;-18.10
69597;BMP180;70000;51.176;-115.568;2024-01-16T14:05:18;86364.00;;;-18.10
69597;BMP180;70000;51.176;-115.568;2024-01-16T14:07:52;86362.80;;;-18.10
69597;BMP180;70000;51.176;-115.568;2024-01-16T14:10:22;86363.40;;;-18.10
69597;BMP180;70000;51.176;-115.568;2024-01-16T14:12:52;86357.60;;;-18.06
69597;BMP180;70000;51.176;-115.568;2024-01-16T14:15:21;86358.40;;;-18.10
69597;BMP180;70000;51.176;-115.568;2024-01-16T14:17:57;86353.40;;;-18.00
69597;BMP180;70000;51.176;-115.568;2024-01-16T14:20:27;86357.60;;;-18.00
69597;BMP180;70000;51.176;-115.568;2024-01-16T14:22:59;86346.00;;;-18.00
69597;BMP180;70000;51.176;-115.568;2024-01-16T14:25:29;86353.20;;;-18.10
69597;BMP180;70000;51.176;-115.568;2024-01-16T14:28:02;86352.00;;;-18.10
69597;BMP180;70000;51.176;-115.568;2024-01-16T14:30:34;86348.20;;;-18.10
69597;BMP180;70000;51.176;-115.568;2024-01-16T14:33:05;86338.00;;;-18.10
69597;BMP180;70000;51.176;-115.568;2024-01-16T14:35:35;86347.40;;;-18.00
69597;BMP180;70000;51.176;-115.568;2024-01-16T14:38:03;86343.40;;;-18.00
69597;BMP180;70000;51.176;-115.568;2024-01-16T14:40:31;86327.80;;;-18.00
69597;BMP180;70000;51.176;-115.568;2024-01-16T14:43:00;86326.00;;;-17.96
69597;BMP180;70000;51.176;-115.568;2024-01-16T14:45:32;86322.40;;;-17.90